createdAt,value
2023-11-18T00:03:21.257Z,11.61
2023-11-18T00:08:22.788Z,11.71
2023-11-18T00:13:24.364Z,11.77
2023-11-18T00:18:25.921Z,11.83
2023-11-18T00:23:30.213Z,11.65
2023-11-18T00:28:31.779Z,11.64
2023-11-18T00:33:33.410Z,11.69
2023-11-18T00:38:34.983Z,11.78
2023-11-18T00:43:36.535Z,11.83
2023-11-18T00:48:38.041Z,12.02
2023-11-18T00:53:40.196Z,12.15
2023-11-18T00:58:41.830Z,12.23
2023-11-18T01:03:43.463Z,12.27
2023-11-18T01:08:45.618Z,12.25
2023-11-18T01:13:47.946Z,12.27
2023-11-18T01:18:50.022Z,12.35
2023-11-18T01:23:51.679Z,12.39
2023-11-18T01:28:53.211Z,12.45
2023-11-18T01:33:56.285Z,12.52
2023-11-18T01:38:57.814Z,12.53
2023-11-18T01:44:00.236Z,12.59
2023-11-18T01:49:01.762Z,12.60
2023-11-18T01:54:03.324Z,12.57
2023-11-18T01:59:07.685Z,12.32
2023-11-18T02:04:09.359Z,12.38
2023-11-18T02:09:10.903Z,12.05
2023-11-18T02:14:14.720Z,12.18
2023-11-18T02:19:20.742Z,12.34
2023-11-18T02:24:31.829Z,12.45
2023-11-18T02:29:38.357Z,12.40
2023-11-18T02:34:41.555Z,12.36
2023-11-18T02:39:44.717Z,12.31
2023-11-18T02:44:46.520Z,12.11
2023-11-18T02:49:54.468Z,12.29
2023-11-18T02:54:56.083Z,12.47
2023-11-18T03:00:01.154Z,12.39
2023-11-18T03:05:02.757Z,12.53
2023-11-18T03:10:10.684Z,12.35
2023-11-18T03:15:12.895Z,12.32
2023-11-18T03:20:17.773Z,12.29
2023-11-18T03:25:20.598Z,12.28
2023-11-18T03:30:22.179Z,12.00
2023-11-18T03:35:25.488Z,12.00
2023-11-18T03:40:29.907Z,12.13
2023-11-18T03:45:31.653Z,12.14
2023-11-18T03:50:33.829Z,12.39
2023-11-18T03:55:35.367Z,12.05
2023-11-18T04:00:36.948Z,12.03
2023-11-18T04:05:40.116Z,12.13
2023-11-18T04:10:41.664Z,11.98
2023-11-18T04:15:43.166Z,12.16
2023-11-18T04:20:44.663Z,12.21
2023-11-18T04:25:46.209Z,11.85
2023-11-18T04:30:47.748Z,11.79
2023-11-18T04:35:49.289Z,11.71
2023-11-18T04:40:50.821Z,11.70
2023-11-18T04:45:53.819Z,11.50
2023-11-18T04:50:55.365Z,11.61
2023-11-18T04:55:56.902Z,11.54
2023-11-18T05:00:58.404Z,11.16
2023-11-18T05:05:59.919Z,11.25
2023-11-18T05:11:01.547Z,10.63
2023-11-18T05:16:04.453Z,11.08
2023-11-18T05:21:06.552Z,10.74
2023-11-18T05:26:08.233Z,10.85
2023-11-18T05:31:09.809Z,10.92
2023-11-18T05:36:12.564Z,10.91
2023-11-18T05:41:18.024Z,11.22
2023-11-18T05:46:23.888Z,11.05
2023-11-18T05:51:26.479Z,11.26
2023-11-18T05:56:28.031Z,11.37
2023-11-18T06:01:30.132Z,11.02
2023-11-18T06:06:33.133Z,11.25
2023-11-18T06:11:35.957Z,11.41
2023-11-18T06:16:41.424Z,11.02
2023-11-18T06:21:44.374Z,11.19
2023-11-18T06:26:45.900Z,11.03
2023-11-18T06:31:48.064Z,10.76
2023-11-18T06:36:49.660Z,11.16
2023-11-18T06:41:51.800Z,10.90
2023-11-18T06:46:53.480Z,10.74
2023-11-18T06:51:55.034Z,10.58
2023-11-18T06:56:57.461Z,10.83
2023-11-18T07:01:59.322Z,10.90
2023-11-18T07:07:00.866Z,10.90
2023-11-18T07:12:02.677Z,10.29
2023-11-18T07:17:05.823Z,10.90
2023-11-18T07:22:07.794Z,10.90
2023-11-18T07:27:12.424Z,11.11
2023-11-18T07:32:15.013Z,10.66
2023-11-18T07:37:17.581Z,11.07
2023-11-18T07:42:19.263Z,10.71
2023-11-18T07:47:22.516Z,10.95
2023-11-18T07:52:24.058Z,10.82
2023-11-18T07:57:25.564Z,11.30
2023-11-18T08:02:27.174Z,11.01
2023-11-18T08:07:28.733Z,11.03
2023-11-18T08:12:30.788Z,11.08
2023-11-18T08:17:32.407Z,10.84
2023-11-18T08:22:34.729Z,10.50
2023-11-18T08:27:36.708Z,10.38
2023-11-18T08:32:39.447Z,10.64
2023-11-18T08:37:41.904Z,10.45
2023-11-18T08:42:50.657Z,10.68
2023-11-18T08:47:54.235Z,10.70
2023-11-18T08:52:59.675Z,10.66
2023-11-18T08:58:04.827Z,10.44
2023-11-18T09:03:06.574Z,10.04
2023-11-18T09:08:08.220Z,10.20
2023-11-18T09:13:13.062Z,10.41
2023-11-18T09:18:14.659Z,10.70
2023-11-18T09:23:18.785Z,10.60
2023-11-18T09:28:25.443Z,10.02
2023-11-18T09:33:29.838Z,10.64
2023-11-18T09:38:33.574Z,10.59
2023-11-18T09:43:43.501Z,10.35
2023-11-18T09:48:48.344Z,10.27
2023-11-18T09:53:54.700Z,10.16
2023-11-18T09:59:08.412Z,10.52
2023-11-18T10:04:11.996Z,10.08
2023-11-18T10:09:16.983Z,10.08
2023-11-18T10:14:18.576Z,10.16
2023-11-18T10:19:20.122Z,10.63
2023-11-18T10:24:21.724Z,10.50
2023-11-18T10:29:25.457Z,10.95
2023-11-18T10:34:29.112Z,10.68
2023-11-18T10:39:33.463Z,10.42
2023-11-18T10:44:34.977Z,10.38
2023-11-18T10:49:39.385Z,10.01
2023-11-18T10:54:55.303Z,9.88
2023-11-18T11:00:00.563Z,10.50
2023-11-18T11:05:03.389Z,10.45
2023-11-18T11:10:05.641Z,10.32
2023-11-18T11:15:22.524Z,10.39
2023-11-18T11:20:32.281Z,10.76
2023-11-18T11:25:46.334Z,10.38
2023-11-18T11:30:51.707Z,10.73
2023-11-18T11:35:58.549Z,10.65
2023-11-18T11:41:01.891Z,10.33
2023-11-18T11:46:12.190Z,10.19
2023-11-18T11:51:31.049Z,10.41
2023-11-18T11:56:45.086Z,10.70
2023-11-18T12:01:48.634Z,10.85
2023-11-18T12:06:56.894Z,10.65
2023-11-18T12:12:03.920Z,10.82
2023-11-18T12:17:10.492Z,10.23
2023-11-18T12:22:19.289Z,10.46
2023-11-18T12:27:41.119Z,10.54
2023-11-18T12:33:00.678Z,10.54
2023-11-18T12:38:46.600Z,10.14
2023-11-18T12:43:59.162Z,10.43
2023-11-18T12:49:02.094Z,10.35
2023-11-18T12:54:03.910Z,10.00
2023-11-18T12:59:07.716Z,10.21
2023-11-18T13:04:10.104Z,10.24
2023-11-18T13:09:12.045Z,10.27
2023-11-18T13:14:13.665Z,10.07
2023-11-18T13:19:29.731Z,10.78
2023-11-18T13:24:33.060Z,10.22
2023-11-18T13:29:35.791Z,10.38
2023-11-18T13:34:40.688Z,10.40
2023-11-18T13:39:43.797Z,10.33
2023-11-18T13:44:45.206Z,10.24
2023-11-18T13:49:47.182Z,10.06
2023-11-18T13:54:49.122Z,10.09
2023-11-18T13:59:51.277Z,10.19
2023-11-18T14:04:56.598Z,10.18
2023-11-18T14:09:58.343Z,9.88
2023-11-18T14:14:59.853Z,10.27
2023-11-18T14:20:01.384Z,9.90
2023-11-18T14:25:07.177Z,10.27
2023-11-18T14:30:10.556Z,9.98
2023-11-18T14:35:12.844Z,10.02
2023-11-18T14:40:15.415Z,9.73
2023-11-18T14:45:17.443Z,9.87
2023-11-18T14:50:22.148Z,10.09
2023-11-18T14:55:23.835Z,10.10
2023-11-18T15:00:29.117Z,9.65
2023-11-18T15:05:32.046Z,9.53
2023-11-18T15:10:33.995Z,10.12
2023-11-18T15:15:36.456Z,9.81
2023-11-18T15:25:45.891Z,9.93
2023-11-18T15:30:47.447Z,9.75
2023-11-18T15:35:49.010Z,9.90
2023-11-18T15:40:53.317Z,9.91
2023-11-18T15:45:59.294Z,10.21
2023-11-18T15:51:01.102Z,9.66
2023-11-18T15:56:02.946Z,9.35
2023-11-18T16:01:05.612Z,9.79
2023-11-18T16:06:07.336Z,9.68
2023-11-18T16:11:11.519Z,9.50
2023-11-18T16:16:18.446Z,9.83
2023-11-18T16:21:19.960Z,9.57
2023-11-18T16:26:21.621Z,9.89
2023-11-18T16:31:23.708Z,10.01
2023-11-18T16:36:26.442Z,10.18
2023-11-18T16:41:41.074Z,9.87
2023-11-18T16:46:47.470Z,10.05
2023-11-18T16:51:55.089Z,9.63
2023-11-18T16:57:00.310Z,10.22
2023-11-18T17:02:02.546Z,9.68
2023-11-18T17:07:04.457Z,9.68
2023-11-18T17:12:06.663Z,9.92
2023-11-18T17:17:09.689Z,9.97
2023-11-18T17:22:11.665Z,9.89
2023-11-18T17:27:13.214Z,9.69
2023-11-18T17:32:14.761Z,9.66
2023-11-18T17:37:16.449Z,9.66
2023-11-18T17:42:17.945Z,9.72
2023-11-18T17:47:20.366Z,9.95
2023-11-18T17:52:21.916Z,9.48
2023-11-18T17:57:24.204Z,9.46
2023-11-18T18:02:25.892Z,9.81
2023-11-18T18:07:28.903Z,9.53
2023-11-18T18:12:31.159Z,9.68
2023-11-18T18:17:35.131Z,9.63
2023-11-18T18:22:39.986Z,9.16
2023-11-18T18:27:42.208Z,9.19
2023-11-18T18:32:43.986Z,9.67
2023-11-18T18:37:45.677Z,9.73
2023-11-18T18:42:47.280Z,9.41
2023-11-18T18:47:49.616Z,9.61
2023-11-18T18:52:53.802Z,8.97
2023-11-18T18:57:55.353Z,9.98
2023-11-18T19:02:57.039Z,9.72
2023-11-18T19:07:59.117Z,9.75
2023-11-18T19:13:01.285Z,9.61
2023-11-18T19:18:03.633Z,9.14
2023-11-18T19:23:05.175Z,9.54
2023-11-18T19:28:10.164Z,9.46
2023-11-18T19:33:14.343Z,9.23
2023-11-18T19:38:15.901Z,9.12
2023-11-18T19:43:17.505Z,9.22
2023-11-18T19:48:19.462Z,9.24
2023-11-18T19:53:23.920Z,8.94
2023-11-18T19:58:25.480Z,9.43
2023-11-18T20:03:27.058Z,9.46
2023-11-18T20:08:28.617Z,9.42
2023-11-18T20:13:30.298Z,9.75
2023-11-18T20:18:33.522Z,9.12
2023-11-18T20:23:35.880Z,9.65
2023-11-18T20:28:39.954Z,9.10
2023-11-18T20:33:43.265Z,9.43
2023-11-18T20:38:45.179Z,9.06
2023-11-18T20:43:47.750Z,9.16
2023-11-18T20:48:50.216Z,9.39
2023-11-18T20:53:51.840Z,9.31
2023-11-18T20:58:53.373Z,9.39
2023-11-18T21:03:55.154Z,9.37
2023-11-18T21:08:56.770Z,9.20
2023-11-18T21:13:58.668Z,9.39
2023-11-18T21:19:01.896Z,9.03
2023-11-18T21:24:04.508Z,8.93
2023-11-18T21:29:06.075Z,8.92
2023-11-18T21:34:07.586Z,9.30
2023-11-18T21:39:15.276Z,9.58
2023-11-18T21:44:16.801Z,9.40
2023-11-18T21:49:18.335Z,9.53
2023-11-18T21:54:19.827Z,9.51
2023-11-18T21:59:21.367Z,8.97
2023-11-18T22:04:23.143Z,9.93
2023-11-18T22:09:25.221Z,10.06
2023-11-18T22:14:26.859Z,9.13
2023-11-18T22:19:29.238Z,9.44
2023-11-18T22:24:30.780Z,9.40
2023-11-18T22:29:32.303Z,9.69
2023-11-18T22:34:36.303Z,9.34
2023-11-18T22:39:37.808Z,9.64
2023-11-18T22:44:39.360Z,9.71
2023-11-18T22:49:41.779Z,9.88
2023-11-18T22:54:45.269Z,9.71
2023-11-18T22:59:47.556Z,9.50
2023-11-18T23:04:49.321Z,9.92
2023-11-18T23:09:50.818Z,9.65
2023-11-18T23:14:53.491Z,9.65
2023-11-18T23:19:55.583Z,9.55
2023-11-18T23:24:57.157Z,10.00
2023-11-18T23:29:58.738Z,9.75
2023-11-18T23:35:01.898Z,10.23
2023-11-18T23:40:06.723Z,10.18
2023-11-18T23:45:09.003Z,10.43
2023-11-18T23:50:12.099Z,10.20
2023-11-18T23:55:14.737Z,10.31
